Time;durP1;ratioP1;P1;durP2;ratioP2;P2;SDS_P1;SDS_P2;PMS_P1;PMS_P2;Temp;Humidity;BMP_temperature;BMP_pressure;BME280_temperature;BME280_humidity;BME280_pressure;Samples;Min_cycle;Max_cycle;Signal;HPM_P1;HPM_P2
2023/01/22 00:00:34;;;;;;;11.82;6.90;;;;;;;;;;5052534;28;20041;-53
2023/01/22 00:03:00;;;;;;;11.32;7.53;;;;;;;;;;5053503;28;20044;-56
2023/01/22 00:05:27;;;;;;;13.20;7.55;;;;;;;;;;5053363;28;20048;-51
2023/01/22 00:07:53;;;;;;;11.95;7.22;;;;;;;;;;5054409;28;20171;-54
2023/01/22 00:10:19;;;;;;;11.38;7.03;;;;;;;;;;5053442;28;20048;-54
2023/01/22 00:12:45;;;;;;;10.35;6.78;;;;;;;;;;5052156;28;20041;-54
2023/01/22 00:15:11;;;;;;;14.20;8.13;;;;;;;;;;5053685;28;20046;-54
2023/01/22 00:17:37;;;;;;;12.00;6.85;;;;;;;;;;5052769;28;20049;-54
2023/01/22 00:20:05;;;;;;;10.80;6.97;;;-0.30;99.90;;;;;;5052803;28;20043;-53
2023/01/22 00:22:31;;;;;;;10.50;6.97;;;;;;;;;;5052766;28;20047;-53
2023/01/22 00:24:57;;;;;;;11.00;7.45;;;;;;;;;;5052593;28;20053;-56
2023/01/22 00:27:23;;;;;;;11.20;7.30;;;;;;;;;;5051411;28;20093;-54
2023/01/22 00:29:49;;;;;;;13.20;7.88;;;;;;;;;;5052129;28;20504;-54
2023/01/22 00:32:16;;;;;;;13.30;7.78;;;;;;;;;;5050935;28;20595;-54
2023/01/22 00:34:44;;;;;;;17.48;8.15;;;;;;;;;;5053374;28;20039;-54
2023/01/22 00:37:10;;;;;;;11.15;6.88;;;;;;;;;;5052471;28;20040;-54
2023/01/22 00:39:36;;;;;;;14.93;7.03;;;;;;;;;;5052168;28;20117;-54
2023/01/22 00:42:02;;;;;;;11.93;7.10;;;;;;;;;;5052383;28;20132;-54
2023/01/22 00:44:28;;;;;;;10.70;6.10;;;;;;;;;;5051523;28;20052;-54
2023/01/22 00:46:54;;;;;;;14.65;7.63;;;;;;;;;;5052259;28;20057;-55
2023/01/22 00:49:20;;;;;;;13.77;7.50;;;;;;;;;;5051482;28;20044;-55
2023/01/22 00:51:46;;;;;;;15.85;9.10;;;;;;;;;;5051356;28;20037;-54
2023/01/22 00:54:12;;;;;;;15.25;8.55;;;;;;;;;;5066555;28;20464;-55
2023/01/22 00:56:39;;;;;;;16.85;8.30;;;;;;;;;;5052774;28;20040;-55
2023/01/22 00:59:09;;;;;;;14.38;8.13;;;;;;;;;;5051297;28;20048;-55
2023/01/22 01:01:35;;;;;;;17.92;10.60;;;;;;;;;;5051208;28;20294;-53
2023/01/22 01:04:01;;;;;;;16.83;10.32;;;;;;;;;;5051507;28;20082;-54
2023/01/22 01:06:27;;;;;;;17.65;9.82;;;;;;;;;;5052077;28;20036;-55
2023/01/22 01:08:53;;;;;;;18.27;8.95;;;;;;;;;;5052211;28;20090;-54
2023/01/22 01:11:21;;;;;;;14.98;9.25;;;;;;;;;;5050362;28;20049;-55
2023/01/22 01:13:48;;;;;;;23.20;9.70;;;;;;;;;;5051050;28;20048;-54
2023/01/22 01:16:18;;;;;;;17.92;10.00;;;;;;;;;;5051282;28;20044;-56
2023/01/22 01:18:44;;;;;;;22.38;11.50;;;;;;;;;;5050712;28;20048;-54
2023/01/22 01:21:11;;;;;;;16.48;10.55;;;;;;;;;;5051341;28;20083;-55
2023/01/22 01:23:37;;;;;;;21.73;10.77;;;;;;;;;;5052012;28;20044;-54
2023/01/22 01:26:07;;;;;;;16.48;9.32;;;;;;;;;;5050658;28;20147;-54
2023/01/22 01:28:37;;;;;;;23.65;11.00;;;;;;;;;;5053931;28;20547;-53
2023/01/22 01:31:08;;;;;;;21.25;11.20;;;;;;;;;;5055400;28;20055;-55
2023/01/22 01:33:34;;;;;;;19.35;10.50;;;;;;;;;;5055386;28;20032;-55
2023/01/22 01:36:04;;;;;;;17.90;10.20;;;;;;;;;;5056621;28;20143;-56
2023/01/22 01:38:31;;;;;;;17.85;9.93;;;;;;;;;;5055668;28;20281;-54
2023/01/22 01:40:57;;;;;;;18.65;10.00;;;;;;;;;;5056288;28;20763;-53
2023/01/22 01:43:24;;;;;;;19.70;11.35;;;;;;;;;;5056512;28;20045;-55
2023/01/22 01:45:50;;;;;;;17.15;10.13;;;;;;;;;;5056782;28;20135;-55
2023/01/22 01:48:24;;;;;;;18.63;11.68;;;-0.30;99.90;;;;;;5055570;28;20455;-55
2023/01/22 01:50:59;;;;;;;18.73;11.00;;;;;;;;;;5056288;28;20047;-55
2023/01/22 01:53:25;;;;;;;23.52;11.30;;;;;;;;;;5056153;28;20401;-55
2023/01/22 01:55:52;;;;;;;18.85;11.70;;;;;;;;;;5054935;28;20478;-54
2023/01/22 01:58:21;;;;;;;20.33;12.05;;;;;;;;;;5055593;28;20045;-55
2023/01/22 02:00:50;;;;;;;21.58;12.20;;;;;;;;;;5056376;28;20562;-56
2023/01/22 02:03:17;;;;;;;24.95;12.32;;;;;;;;;;5054736;28;20581;-56
2023/01/22 02:05:43;;;;;;;22.83;12.23;;;;;;;;;;5057073;28;20040;-56
2023/01/22 02:08:09;;;;;;;22.70;11.55;;;;;;;;;;5055576;28;20044;-55
2023/01/22 02:10:35;;;;;;;17.20;9.52;;;;;;;;;;5054334;28;20056;-55
2023/01/22 02:13:06;;;;;;;18.25;10.90;;;;;;;;;;5054189;28;20891;-55
2023/01/22 02:15:32;;;;;;;16.17;9.48;;;;;;;;;;5054515;28;20124;-55
2023/01/22 02:17:58;;;;;;;17.92;10.35;;;;;;;;;;5054592;28;20052;-55
2023/01/22 02:20:24;;;;;;;20.52;10.73;;;;;;;;;;5055335;28;20412;-56
2023/01/22 02:22:50;;;;;;;16.27;10.05;;;;;;;;;;5054410;28;20032;-54
2023/01/22 02:25:17;;;;;;;17.42;9.85;;;;;;;;;;5054382;28;20051;-55
2023/01/22 02:27:43;;;;;;;20.80;10.75;;;;;;;;;;5053918;28;20519;-55
2023/01/22 02:30:09;;;;;;;18.73;9.63;;;;;;;;;;5054636;28;20037;-54
2023/01/22 02:32:35;;;;;;;19.33;10.15;;;;;;;;;;5053693;28;20107;-53
2023/01/22 02:35:02;;;;;;;17.63;10.75;;;;;;;;;;5054499;28;20041;-55
2023/01/22 02:37:28;;;;;;;18.08;10.10;;;;;;;;;;5054072;28;20043;-54
2023/01/22 02:39:54;;;;;;;16.95;11.45;;;;;;;;;;5054574;28;20036;-52
2023/01/22 02:42:20;;;;;;;20.55;10.38;;;;;;;;;;5054474;28;20044;-56
2023/01/22 02:44:46;;;;;;;23.88;11.18;;;;;;;;;;5054006;28;20048;-55
2023/01/22 02:47:12;;;;;;;18.10;10.90;;;;;;;;;;5053443;28;20044;-54
2023/01/22 02:49:38;;;;;;;19.98;11.00;;;;;;;;;;5053539;28;20040;-56
2023/01/22 02:52:04;;;;;;;17.65;11.05;;;;;;;;;;5054574;28;20037;-55
2023/01/22 02:54:30;;;;;;;20.33;11.95;;;;;;;;;;5053433;28;20068;-55
2023/01/22 02:56:57;;;;;;;20.20;12.27;;;;;;;;;;5053281;28;20437;-55
2023/01/22 02:59:23;;;;;;;22.38;11.65;;;;;;;;;;5053283;28;20117;-55
2023/01/22 03:01:50;;;;;;;20.13;11.02;;;;;;;;;;5053101;28;20923;-54
2023/01/22 03:04:16;;;;;;;20.95;11.73;;;;;;;;;;5054490;28;20041;-55
2023/01/22 03:06:44;;;;;;;22.48;12.43;;;;;;;;;;5055212;28;20037;-56
2023/01/22 03:09:11;;;;;;;21.77;12.35;;;;;;;;;;5054707;28;20048;-55
2023/01/22 03:11:38;;;;;;;18.67;10.68;;;;;;;;;;5055517;28;20139;-54
2023/01/22 03:22:19;;;;;;;17.33;9.32;;;;;;;;;;5053816;28;20044;-55
2023/01/22 03:24:52;;;;;;;15.02;9.52;;;;;;;;;;5055699;28;20052;-53
2023/01/22 03:27:23;;;;;;;16.42;9.20;;;;;;;;;;5053656;28;20040;-55
2023/01/22 03:29:49;;;;;;;18.95;9.65;;;;;;;;;;5054805;28;20899;-55
2023/01/22 03:32:16;;;;;;;18.85;9.13;;;;;;;;;;5054720;28;20059;-55
2023/01/22 03:34:42;;;;;;;15.02;8.38;;;;;;;;;;5054361;28;20047;-56
2023/01/22 03:37:11;;;;;;;15.10;8.10;;;0.30;99.90;;;;;;5053346;28;20044;-55
2023/01/22 03:39:38;;;;;;;12.27;6.53;;;;;;;;;;5052428;28;20096;-54
2023/01/22 03:42:05;;;;;;;14.05;5.72;;;;;;;;;;5052779;28;20110;-54
2023/01/22 03:44:31;;;;;;;14.80;7.32;;;;;;;;;;5053719;28;20048;-55
2023/01/22 03:46:57;;;;;;;14.93;7.88;;;;;;;;;;5051797;28;20059;-53
2023/01/22 03:49:23;;;;;;;20.77;8.80;;;;;;;;;;5049247;28;20033;-54
2023/01/22 03:51:49;;;;;;;11.48;7.10;;;;;;;;;;5051514;28;20040;-56
2023/01/22 03:54:15;;;;;;;12.18;7.28;;;;;;;;;;5052527;28;20040;-56
2023/01/22 03:56:42;;;;;;;11.38;6.68;;;;;;;;;;5051663;28;20074;-55
2023/01/22 03:59:09;;;;;;;13.68;6.28;;;0.40;99.90;;;;;;5051769;28;20055;-56
2023/01/22 04:01:35;;;;;;;14.77;6.68;;;;;;;;;;5050430;28;20343;-56
2023/01/22 04:04:01;;;;;;;11.40;5.55;;;;;;;;;;5052543;28;20064;-56
2023/01/22 04:06:27;;;;;;;14.32;5.15;;;;;;;;;;5051946;28;20041;-55
2023/01/22 04:08:54;;;;;;;9.32;5.30;;;;;;;;;;5050706;28;20068;-55
2023/01/22 04:11:21;;;;;;;10.63;5.10;;;;;;;;;;5051917;28;20063;-56
2023/01/22 04:13:47;;;;;;;10.55;4.97;;;;;;;;;;5051366;28;20098;-56
2023/01/22 04:16:14;;;;;;;15.27;4.88;;;;;;;;;;5052512;28;20048;-56
2023/01/22 04:18:40;;;;;;;11.50;5.80;;;;;;;;;;5050698;28;20207;-55
2023/01/22 04:21:07;;;;;;;11.55;4.55;;;;;;;;;;5051715;28;20127;-55
2023/01/22 04:23:33;;;;;;;12.13;5.00;;;;;;;;;;5050794;28;20043;-55
2023/01/22 04:25:59;;;;;;;7.90;4.80;;;;;;;;;;5053810;28;20037;-56
2023/01/22 04:28:25;;;;;;;9.88;4.88;;;;;;;;;;5052074;28;20040;-55
2023/01/22 04:30:53;;;;;;;8.05;4.60;;;0.70;99.90;;;;;;5052799;28;20044;-55
2023/01/22 04:33:20;;;;;;;6.95;3.25;;;;;;;;;;5050912;28;20102;-55
2023/01/22 04:35:50;;;;;;;10.50;5.00;;;1.00;99.90;;;;;;5053836;28;20127;-53
2023/01/22 04:38:16;;;;;;;7.70;4.05;;;;;;;;;;5052387;28;20180;-54
2023/01/22 04:40:42;;;;;;;9.82;5.22;;;;;;;;;;5053279;28;20052;-54
2023/01/22 04:43:09;;;;;;;10.73;4.45;;;0.80;99.90;;;;;;5052415;28;20047;-55
2023/01/22 04:45:35;;;;;;;8.57;4.45;;;;;;;;;;5006720;28;1288714;-56
2023/01/22 04:48:01;;;;;;;5.65;3.47;;;;;;;;;;5051723;28;20040;-55
2023/01/22 04:50:30;;;;;;;7.80;4.10;;;;;;;;;;5052302;28;20332;-55
2023/01/22 04:52:56;;;;;;;6.40;3.58;;;;;;;;;;5052258;28;20127;-53
2023/01/22 04:55:23;;;;;;;9.85;4.35;;;;;;;;;;5051501;28;20041;-54
2023/01/22 04:57:49;;;;;;;9.35;4.70;;;;;;;;;;5051321;28;20040;-55
2023/01/22 05:00:15;;;;;;;7.22;4.70;;;;;;;;;;5051780;28;20072;-55
2023/01/22 05:02:42;;;;;;;8.68;4.03;;;;;;;;;;5050912;28;20378;-55
2023/01/22 05:05:08;;;;;;;8.82;4.88;;;;;;;;;;5052216;28;20090;-55
2023/01/22 05:07:35;;;;;;;10.68;4.70;;;;;;;;;;5050699;28;20087;-57
2023/01/22 05:10:01;;;;;;;8.60;4.70;;;;;;;;;;5050165;28;20047;-55
2023/01/22 05:12:27;;;;;;;6.68;4.13;;;;;;;;;;5052130;28;20716;-55
2023/01/22 05:14:53;;;;;;;7.28;4.47;;;;;;;;;;5052097;28;20143;-54
2023/01/22 05:17:20;;;;;;;11.65;5.10;;;0.90;99.90;;;;;;5049624;28;20048;-55
2023/01/22 05:19:46;;;;;;;10.98;4.97;;;;;;;;;;5051745;28;20698;-55
2023/01/22 05:22:12;;;;;;;8.50;4.53;;;;;;;;;;5051540;28;20036;-55
2023/01/22 05:24:38;;;;;;;10.88;4.45;;;;;;;;;;5050748;28;20663;-55
2023/01/22 05:27:04;;;;;;;7.18;3.90;;;;;;;;;;5051603;28;20813;-54
2023/01/22 05:29:30;;;;;;;7.57;3.78;;;;;;;;;;5051068;28;20037;-53
2023/01/22 05:31:57;;;;;;;5.90;3.33;;;;;;;;;;5050888;28;20394;-54
2023/01/22 05:34:24;;;;;;;9.05;4.25;;;;;;;;;;5051759;28;20047;-55
2023/01/22 05:36:50;;;;;;;8.82;3.65;;;;;;;;;;5050738;28;20603;-54
2023/01/22 05:39:16;;;;;;;9.48;2.70;;;;;;;;;;5051365;28;20130;-54
2023/01/22 05:41:43;;;;;;;5.65;3.08;;;;;;;;;;5052318;28;20523;-55
2023/01/22 05:44:10;;;;;;;9.23;3.85;;;1.20;99.90;;;;;;5053491;28;20044;-56
2023/01/22 05:46:36;;;;;;;6.85;3.45;;;;;;;;;;5053937;28;20049;-55
2023/01/22 05:49:03;;;;;;;10.25;4.22;;;;;;;;;;5052054;28;20056;-56
2023/01/22 05:51:29;;;;;;;8.80;3.58;;;;;;;;;;5052065;28;20425;-55
2023/01/22 05:53:55;;;;;;;8.30;4.05;;;;;;;;;;5052169;28;20044;-53
2023/01/22 05:56:21;;;;;;;8.85;4.30;;;;;;;;;;5052803;28;20055;-55
2023/01/22 05:58:47;;;;;;;8.30;3.80;;;;;;;;;;5052271;28;20123;-53
2023/01/22 06:01:13;;;;;;;7.13;4.00;;;;;;;;;;5050092;28;20047;-54
2023/01/22 06:03:39;;;;;;;9.20;3.67;;;;;;;;;;5050018;28;20228;-54
2023/01/22 06:06:14;;;;;;;6.95;3.70;;;1.20;99.90;;;;;;5052984;28;20041;-53
2023/01/22 06:08:41;;;;;;;9.05;2.38;;;;;;;;;;5050932;28;20055;-55
2023/01/22 06:11:09;;;;;;;7.20;2.92;;;;;;;;;;5050635;28;20053;-54
2023/01/22 06:13:36;;;;;;;6.10;2.53;;;;;;;;;;5053345;28;20492;-54
2023/01/22 06:16:02;;;;;;;6.47;2.97;;;;;;;;;;5055407;28;20250;-54
2023/01/22 06:18:28;;;;;;;7.47;3.05;;;;;;;;;;5053909;28;20044;-55
2023/01/22 06:20:59;;;;;;;7.82;3.83;;;1.30;99.90;;;;;;5054448;28;20131;-55
2023/01/22 06:23:26;;;;;;;8.20;3.40;;;;;;;;;;5052595;28;20382;-54
2023/01/22 06:25:53;;;;;;;6.47;3.47;;;;;;;;;;5055035;28;20050;-55
2023/01/22 06:28:20;;;;;;;6.85;3.25;;;;;;;;;;5054418;28;20036;-55
2023/01/22 06:30:46;;;;;;;8.13;3.03;;;;;;;;;;5054411;28;20041;-55
2023/01/22 06:33:12;;;;;;;6.80;2.72;;;;;;;;;;5053214;28;20040;-55
2023/01/22 06:35:38;;;;;;;9.48;3.47;;;;;;;;;;5054966;28;20782;-55
2023/01/22 06:38:05;;;;;;;9.75;4.18;;;;;;;;;;5054760;28;20128;-55
2023/01/22 06:40:31;;;;;;;11.38;3.75;;;;;;;;;;5054131;28;20542;-55
2023/01/22 06:42:57;;;;;;;9.63;3.65;;;;;;;;;;5054112;28;20056;-55
2023/01/22 06:45:23;;;;;;;8.95;4.30;;;;;;;;;;5054008;28;20085;-55
2023/01/22 06:47:49;;;;;;;8.48;3.10;;;;;;;;;;5054638;28;20049;-54
2023/01/22 06:50:15;;;;;;;5.18;3.22;;;;;;;;;;5053979;28;20036;-55
2023/01/22 06:52:42;;;;;;;10.90;3.55;;;;;;;;;;5054789;28;20036;-55
2023/01/22 06:55:08;;;;;;;7.97;3.50;;;;;;;;;;5055443;28;20036;-56
2023/01/22 06:57:34;;;;;;;7.55;3.30;;;;;;;;;;5055969;28;20040;-55
2023/01/22 07:00:00;;;;;;;6.63;3.50;;;;;;;;;;5055228;28;20135;-54
2023/01/22 07:02:26;;;;;;;6.85;3.33;;;;;;;;;;5054245;28;20048;-57
2023/01/22 07:04:52;;;;;;;6.95;3.50;;;;;;;;;;5054545;28;20109;-55
2023/01/22 07:07:18;;;;;;;8.52;3.65;;;;;;;;;;5056329;28;20076;-55
2023/01/22 07:09:45;;;;;;;9.07;4.53;;;;;;;;;;5055653;28;20119;-55
2023/01/22 07:12:11;;;;;;;7.85;3.65;;;;;;;;;;5054251;28;20044;-56
2023/01/22 07:14:37;;;;;;;12.18;4.72;;;;;;;;;;5053051;28;20044;-55
2023/01/22 07:17:03;;;;;;;7.13;3.53;;;;;;;;;;5053665;28;20127;-56
2023/01/22 07:19:29;;;;;;;6.78;3.20;;;;;;;;;;5054129;28;20032;-54
2023/01/22 07:21:55;;;;;;;10.18;3.95;;;;;;;;;;5052726;28;20563;-55
2023/01/22 07:24:21;;;;;;;7.30;4.20;;;;;;;;;;5050870;28;20094;-55
2023/01/22 07:26:48;;;;;;;8.60;4.40;;;;;;;;;;5053359;28;20119;-53
2023/01/22 07:29:14;;;;;;;8.18;4.05;;;;;;;;;;5053161;28;20075;-55
2023/01/22 07:31:40;;;;;;;6.28;3.22;;;;;;;;;;5051098;28;20045;-55
2023/01/22 07:34:06;;;;;;;7.50;4.07;;;;;;;;;;5052358;28;20036;-55
2023/01/22 07:36:32;;;;;;;9.30;4.07;;;;;;;;;;5054018;28;20042;-55
2023/01/22 07:38:58;;;;;;;7.95;3.85;;;;;;;;;;5053312;28;20075;-54
2023/01/22 07:41:25;;;;;;;8.90;4.63;;;1.00;99.90;;;;;;5052718;28;20209;-55
2023/01/22 07:43:52;;;;;;;6.65;3.97;;;;;;;;;;5051708;28;20040;-55
2023/01/22 07:46:18;;;;;;;8.73;4.35;;;;;;;;;;5051404;28;20048;-55
2023/01/22 07:48:45;;;;;;;8.45;4.97;;;;;;;;;;5051388;28;20131;-54
2023/01/22 07:51:11;;;;;;;9.70;4.80;;;;;;;;;;5051849;28;20929;-54
2023/01/22 07:53:38;;;;;;;7.10;4.25;;;;;;;;;;5052615;28;20085;-54
2023/01/22 07:56:04;;;;;;;9.85;5.13;;;0.90;99.90;;;;;;5052522;28;20056;-54
2023/01/22 07:58:31;;;;;;;9.30;5.80;;;;;;;;;;5053315;28;20029;-56
2023/01/22 08:00:57;;;;;;;15.77;5.75;;;;;;;;;;5054190;28;20463;-56
2023/01/22 08:03:23;;;;;;;6.82;4.43;;;;;;;;;;5051826;28;20055;-55
2023/01/22 08:05:49;;;;;;;9.80;5.85;;;;;;;;;;5053958;28;20044;-55
2023/01/22 08:08:17;;;;;;;7.47;3.78;;;;;;;;;;5053857;28;20051;-56
2023/01/22 08:10:43;;;;;;;9.70;4.78;;;;;;;;;;5052583;28;20051;-55
2023/01/22 08:13:10;;;;;;;8.63;4.45;;;;;;;;;;5053326;28;20037;-54
2023/01/22 08:15:36;;;;;;;9.00;5.22;;;;;;;;;;5052935;28;20058;-55
2023/01/22 08:18:02;;;;;;;7.22;3.35;;;;;;;;;;5053261;28;20051;-55
2023/01/22 08:20:28;;;;;;;7.47;4.20;;;;;;;;;;5053797;28;20129;-55
2023/01/22 08:22:58;;;;;;;5.35;2.95;;;;;;;;;;5052424;28;20039;-56
2023/01/22 08:25:24;;;;;;;7.55;5.40;;;;;;;;;;5051199;28;20363;-54
2023/01/22 08:27:50;;;;;;;8.23;4.90;;;;;;;;;;5050864;28;20370;-56
2023/01/22 08:30:17;;;;;;;7.70;4.72;;;;;;;;;;5052094;28;20653;-55
2023/01/22 08:32:44;;;;;;;9.25;6.10;;;;;;;;;;5051421;28;20037;-54
2023/01/22 08:35:11;;;;;;;14.75;6.90;;;;;;;;;;5051035;28;20123;-55
2023/01/22 08:37:37;;;;;;;10.40;6.70;;;;;;;;;;5052094;28;20473;-55
2023/01/22 08:40:04;;;;;;;13.32;5.70;;;0.70;99.90;;;;;;5049565;28;20928;-54
2023/01/22 08:42:30;;;;;;;7.80;4.75;;;;;;;;;;5051621;28;20036;-55
2023/01/22 08:44:56;;;;;;;12.55;6.88;;;;;;;;;;5051587;28;20040;-54
2023/01/22 08:47:23;;;;;;;10.40;6.57;;;;;;;;;;5049004;28;20118;-55
2023/01/22 08:49:49;;;;;;;10.20;6.10;;;;;;;;;;5051017;28;20050;-55
2023/01/22 08:52:16;;;;;;;6.55;4.65;;;;;;;;;;5051961;28;20141;-54
2023/01/22 08:54:42;;;;;;;8.30;5.88;;;;;;;;;;5051613;28;20303;-55
2023/01/22 08:57:08;;;;;;;8.75;6.15;;;;;;;;;;5050254;28;20535;-54
2023/01/22 08:59:34;;;;;;;5.30;2.85;;;;;;;;;;5050992;28;20044;-54
2023/01/22 09:02:01;;;;;;;8.52;4.82;;;;;;;;;;5051232;28;20131;-56
2023/01/22 09:04:27;;;;;;;9.18;5.20;;;;;;;;;;5051577;28;20059;-53
2023/01/22 09:06:54;;;;;;;9.23;5.10;;;;;;;;;;5051790;28;20356;-55
2023/01/22 09:09:20;;;;;;;8.07;5.20;;;;;;;;;;5051893;28;20041;-56
2023/01/22 09:11:46;;;;;;;8.00;4.72;;;;;;;;;;5051581;28;20127;-55
2023/01/22 09:14:12;;;;;;;7.82;4.70;;;;;;;;;;5050828;28;20509;-55
2023/01/22 09:16:39;;;;;;;9.80;5.10;;;;;;;;;;5050819;28;20102;-55
2023/01/22 09:19:06;;;;;;;7.78;4.93;;;;;;;;;;5050462;28;20040;-55
2023/01/22 09:21:32;;;;;;;11.07;4.32;;;;;;;;;;5051403;28;20751;-54
2023/01/22 09:23:59;;;;;;;8.68;4.97;;;;;;;;;;5050747;28;20048;-55
2023/01/22 09:26:25;;;;;;;9.40;5.22;;;;;;;;;;5050155;28;20123;-55
2023/01/22 09:28:51;;;;;;;8.82;4.25;;;;;;;;;;5051645;28;20044;-55
2023/01/22 09:31:17;;;;;;;8.75;4.03;;;;;;;;;;5052779;28;20512;-55
2023/01/22 09:33:43;;;;;;;7.43;3.88;;;;;;;;;;5051222;28;20049;-55
2023/01/22 09:36:14;;;;;;;7.65;4.03;;;0.60;99.90;;;;;;5052424;28;20052;-55
2023/01/22 09:38:41;;;;;;;7.85;4.03;;;;;;;;;;5052083;28;20045;-56
2023/01/22 09:41:13;;;;;;;12.32;4.95;;;;;;;;;;5051355;28;20048;-55
2023/01/22 09:43:48;;;;;;;9.98;4.60;;;;;;;;;;5051330;28;20330;-58
2023/01/22 09:46:21;;;;;;;7.68;5.18;;;;;;;;;;5051166;28;20409;-53
2023/01/22 09:48:56;;;;;;;8.35;4.57;;;1.10;99.90;;;;;;5053014;28;20064;-55
2023/01/22 09:51:22;;;;;;;10.52;4.78;;;;;;;;;;5055377;28;20076;-53
2023/01/22 09:53:53;;;;;;;8.82;4.90;;;;;;;;;;5055315;28;20043;-54
2023/01/22 09:56:22;;;;;;;7.20;4.80;;;1.10;99.90;;;;;;5053601;28;20296;-51
2023/01/22 09:58:49;;;;;;;7.28;3.53;;;;;;;;;;5053316;28;20059;-52
2023/01/22 10:01:16;;;;;;;7.70;4.20;;;;;;;;;;5054572;28;20051;-49
2023/01/22 10:03:48;;;;;;;10.45;4.32;;;;;;;;;;5051743;28;20048;-53
2023/01/22 10:06:20;;;;;;;7.63;3.65;;;;;;;;;;5054243;28;20044;-54
2023/01/22 10:08:49;;;;;;;10.48;4.85;;;;;;;;;;5054631;28;20044;-53
2023/01/22 10:11:16;;;;;;;7.05;3.72;;;;;;;;;;5053561;28;20044;-54
2023/01/22 10:13:42;;;;;;;8.10;4.28;;;;;;;;;;5052541;28;20070;-53
2023/01/22 10:16:09;;;;;;;8.68;4.20;;;;;;;;;;5052687;28;20264;-51
2023/01/22 10:18:45;;;;;;;7.35;4.30;;;;;;;;;;5053557;28;20106;-52
2023/01/22 10:21:27;;;;;;;7.97;4.47;;;;;;;;;;5054340;28;20040;-51
2023/01/22 10:23:55;;;;;;;;;;;;;;;;;;5055404;28;20040;-53
2023/01/22 10:26:41;;;;;;;9.63;3.97;;;;;;;;;;5054622;28;19977;-53
2023/01/22 10:29:14;;;;;;;8.95;4.72;;;;;;;;;;5054641;28;20052;-53
2023/01/22 10:31:40;;;;;;;;;;;;;;;;;;5055463;28;20044;-50
2023/01/22 10:34:26;;;;;;;9.73;4.88;;;1.40;99.90;;;;;;5054840;28;19924;-51
2023/01/22 10:36:52;;;;;;;10.48;5.25;;;;;;;;;;5055325;28;20085;-53
2023/01/22 10:39:22;;;;;;;8.63;5.55;;;;;;;;;;5054483;28;20052;-50
2023/01/22 10:41:49;;;;;;;8.07;4.90;;;;;;;;;;5054459;28;20538;-51
2023/01/22 10:44:15;;;;;;;10.07;5.53;;;;;;;;;;5054505;28;20076;-52
2023/01/22 10:46:41;;;;;;;8.77;5.35;;;;;;;;;;5054414;28;20051;-48
2023/01/22 10:49:33;;;;;;;9.07;5.68;;;;;;;;;;5055407;28;20044;-52
2023/01/22 10:52:05;;;;;;;10.25;5.65;;;1.60;99.90;;;;;;5055275;28;20068;-53
2023/01/22 10:54:42;;;;;;;10.25;5.35;;;1.50;99.90;;;;;;5054669;28;20036;-49
2023/01/22 10:57:26;;;;;;;12.80;6.38;;;1.60;99.90;;;;;;5055245;28;20056;-50
2023/01/22 11:00:01;;;;;;;11.63;5.93;;;1.50;99.90;;;;;;5055946;28;20859;-54
2023/01/22 11:02:27;;;;;;;12.68;5.63;;;;;;;;;;5055012;28;20213;-51
2023/01/22 11:04:53;;;;;;;9.50;5.93;;;;;;;;;;5056458;28;20507;-52
2023/01/22 11:07:29;;;;;;;8.65;5.35;;;1.90;99.90;;;;;;5055581;28;20136;-53
2023/01/22 11:09:58;;;;;;;10.68;5.47;;;;;;;;;;5055189;28;20041;-51
2023/01/22 11:12:30;;;;;;;9.77;5.90;;;1.90;99.90;;;;;;5055142;28;20405;-50
2023/01/22 11:14:59;;;;;;;8.77;5.68;;;;;;;;;;5055537;28;20083;-49
2023/01/22 11:17:37;;;;;;;7.80;5.32;;;2.10;99.90;;;;;;5054984;28;20052;-50
2023/01/22 11:20:15;;;;;;;12.48;4.80;;;2.10;99.90;;;;;;5053320;28;20459;-52
2023/01/22 11:22:45;;;;;;;8.23;5.50;;;2.10;99.90;;;;;;5053682;28;20040;-50
2023/01/22 11:25:11;;;;;;;9.00;5.80;;;;;;;;;;5053226;28;20056;-53
2023/01/22 11:28:11;;;;;;;9.55;5.03;;;2.20;99.90;;;;;;5052934;28;20090;-53
2023/01/22 11:31:01;;;;;;;9.40;5.22;;;2.30;99.90;;;;;;5054352;28;20756;-53
2023/01/22 11:34:00;;;;;;;8.48;5.00;;;2.30;99.90;;;;;;5052757;28;20043;-51
2023/01/22 11:36:45;;;;;;;9.68;4.60;;;;;;;;;;5052293;28;20044;-52
2023/01/22 11:39:11;;;;;;;13.40;6.35;;;;;;;;;;5053103;28;20052;-52
2023/01/22 11:41:54;;;;;;;10.52;5.22;;;2.40;99.90;;;;;;5053320;28;20036;-53
2023/01/22 11:44:46;;;;;;;10.40;6.13;;;2.20;99.90;;;;;;5053747;28;20037;-48
2023/01/22 11:47:30;;;;;;;9.10;5.55;;;2.30;99.90;;;;;;5052401;28;20056;-51
2023/01/22 11:50:18;;;;;;;9.35;6.20;;;2.20;99.90;;;;;;5053578;28;20556;-53
2023/01/22 11:52:44;;;;;;;9.27;5.65;;;;;;;;;;5052721;28;20132;-53
2023/01/22 11:55:31;;;;;;;10.68;5.72;;;2.50;99.90;;;;;;5052488;28;20269;-52
2023/01/22 11:58:42;;;;;;;11.80;6.10;;;2.50;99.90;;;;;;5051941;28;20049;-52
2023/01/22 12:01:35;;;;;;;9.90;5.47;;;2.40;99.90;;;;;;5019502;28;20182;-52
2023/01/22 12:04:01;;;;;;;10.98;6.15;;;;;;;;;;5051449;28;20087;-53
2023/01/22 12:06:45;;;;;;;9.98;4.97;;;2.50;99.90;;;;;;5052012;28;20506;-50
2023/01/22 12:09:23;;;;;;;24.98;6.43;;;;;;;;;;5053536;28;20111;-52
2023/01/22 12:12:04;;;;;;;11.30;5.47;;;2.60;99.90;;;;;;5051667;28;20062;-51
2023/01/22 12:14:37;;;;;;;10.20;5.72;;;2.60;99.90;;;;;;5051429;28;20063;-52
2023/01/22 12:17:31;;;;;;;9.70;4.97;;;2.60;99.90;;;;;;5051521;28;20889;-49
2023/01/22 12:20:21;;;;;;;9.32;5.45;;;2.50;99.90;;;;;;5050043;28;20134;-49
2023/01/22 12:22:58;;;;;;;9.13;5.22;;;2.60;99.90;;;;;;5050347;28;20050;-53
2023/01/22 12:25:43;;;;;;;11.18;5.75;;;2.70;99.90;;;;;;5052532;28;20480;-50
2023/01/22 12:28:23;;;;;;;8.73;4.45;;;2.80;99.90;;;;;;5050784;28;20396;-50
2023/01/22 12:30:59;;;;;;;8.23;4.85;;;2.50;99.90;;;;;;5051646;28;20044;-52
2023/01/22 12:33:29;;;;;;;9.30;5.07;;;2.60;99.90;;;;;;5051130;28;20056;-48
2023/01/22 12:35:59;;;;;;;8.32;4.35;;;2.70;99.90;;;;;;5051671;28;20113;-52
2023/01/22 12:38:54;;;;;;;8.82;4.75;;;2.60;99.90;;;;;;5052959;28;20072;-50
2023/01/22 12:41:35;;;;;;;14.07;5.50;;;;;;;;;;5050623;28;20051;-51
2023/01/22 12:44:20;;;;;;;9.60;3.90;;;2.50;99.90;;;;;;5052372;28;20047;-53
2023/01/22 12:47:01;;;;;;;8.88;5.30;;;2.50;99.90;;;;;;5050997;28;20386;-51
2023/01/22 12:49:27;;;;;;;8.40;4.65;;;;;;;;;;5051325;28;20048;-50
2023/01/22 12:51:54;;;;;;;10.57;4.90;;;2.50;99.90;;;;;;5052401;28;20071;-51
2023/01/22 12:54:29;;;;;;;10.25;5.55;;;2.50;99.90;;;;;;5052013;28;20040;-49
2023/01/22 12:57:13;;;;;;;8.90;4.63;;;;;;;;;;5051658;28;20044;-47
2023/01/22 12:59:46;;;;;;;10.70;6.18;;;2.50;99.90;;;;;;5050302;28;20036;-51
2023/01/22 13:02:30;;;;;;;15.40;6.35;;;2.60;99.90;;;;;;5051114;28;20064;-51
2023/01/22 13:04:56;;;;;;;9.93;5.43;;;;;;;;;;5050562;28;20063;-48
2023/01/22 13:07:30;;;;;;;8.85;5.35;;;2.50;99.90;;;;;;5051205;28;20041;-53
2023/01/22 13:10:06;;;;;;;7.70;5.43;;;2.60;99.90;;;;;;5050471;28;20040;-52
2023/01/22 13:12:44;;;;;;;8.32;4.55;;;2.70;99.90;;;;;;5049656;28;20379;-51
2023/01/22 13:15:32;;;;;;;12.35;6.35;;;2.70;99.90;;;;;;5051406;28;20155;-50
2023/01/22 13:18:03;;;;;;;7.78;5.25;;;2.70;99.90;;;;;;5043921;28;20094;-49
2023/01/22 13:20:33;;;;;;;10.52;5.82;;;4.10;99.90;;;;;;5051908;28;20080;-53
2023/01/22 13:22:59;;;;;;;14.40;7.38;;;;;;;;;;5051827;28;20161;-53
2023/01/22 13:25:27;;;;;;;11.90;5.25;;;2.40;99.90;;;;;;5054033;28;20151;-50
2023/01/22 13:27:54;;;;;;;16.15;6.78;;;;;;;;;;5053614;28;20047;-52
2023/01/22 13:30:25;;;;;;;10.73;6.22;;;4.30;99.90;;;;;;5053938;28;20048;-52
2023/01/22 13:33:19;;;;;;;12.38;5.82;;;2.60;99.90;;;;;;5053955;28;20468;-50
2023/01/22 13:35:45;;;;;;;12.10;6.70;;;2.40;99.90;;;;;;5053997;28;20047;-52
2023/01/22 13:38:26;;;;;;;9.82;5.43;;;2.50;99.90;;;;;;5034078;28;21480;-47
2023/01/22 13:41:02;;;;;;;11.88;6.90;;;2.50;99.90;;;;;;5054144;28;20044;-52
2023/01/22 13:43:28;;;;;;;10.75;5.70;;;;;;;;;;5055231;28;20471;-51
2023/01/22 13:45:55;;;;;;;13.23;6.63;;;2.60;99.90;;;;;;5055453;28;20056;-54
2023/01/22 13:48:24;;;;;;;14.60;6.95;;;2.50;99.90;;;;;;5054189;28;20060;-52
2023/01/22 13:50:59;;;;;;;13.32;7.57;;;2.30;99.90;;;;;;5054576;28;20571;-51
2023/01/22 13:53:31;;;;;;;10.68;6.85;;;2.50;99.90;;;;;;5055123;28;20069;-51
2023/01/22 13:55:58;;;;;;;13.57;7.18;;;2.40;99.90;;;;;;5054857;28;20056;-52
2023/01/22 13:58:43;;;;;;;8.52;3.97;;;2.50;99.90;;;;;;5054557;28;20080;-52
2023/01/22 14:01:10;;;;;;;14.35;6.80;;;2.50;99.90;;;;;;5055327;28;20098;-51
2023/01/22 14:03:36;;;;;;;10.73;5.93;;;;;;;;;;5054683;28;20044;-51
2023/01/22 14:06:14;;;;;;;11.57;5.80;;;2.40;99.90;;;;;;5054893;28;20385;-50
2023/01/22 14:08:57;;;;;;;11.57;6.53;;;3.90;99.90;;;;;;5054971;28;20040;-51
2023/01/22 14:11:24;;;;;;;13.50;7.10;;;;;;;;;;5052914;28;20091;-51
2023/01/22 14:13:52;;;;;;;13.57;7.00;;;2.40;99.90;;;;;;5054342;28;20067;-51
2023/01/22 14:16:18;;;;;;;12.10;6.35;;;;;;;;;;5054450;28;20569;-53
2023/01/22 14:18:45;;;;;;;15.80;6.95;;;;;;;;;;5052830;28;20133;-53
2023/01/22 14:21:11;;;;;;;12.88;6.18;;;;;;;;;;5053153;28;20044;-50
2023/01/22 14:23:38;;;;;;;17.58;6.45;;;;;;;;;;5053069;28;20040;-50
2023/01/22 14:26:05;;;;;;;16.23;8.02;;;2.40;99.90;;;;;;5052920;28;20131;-50
2023/01/22 14:28:33;;;;;;;24.98;9.75;;;2.40;99.90;;;;;;5052262;28;20047;-52